createdAt,value
2018-04-15T06:15:28.976Z,2728
2018-04-15T06:16:28.763Z,2696
2018-04-15T06:17:28.901Z,2716
2018-04-15T06:18:29.204Z,2804
2018-04-15T06:19:29.627Z,2860
2018-04-15T06:20:30.042Z,2924
2018-04-15T06:21:30.286Z,3040
2018-04-15T06:22:30.423Z,3052
2018-04-15T06:23:31.085Z,3220
2018-04-15T06:24:30.705Z,3244
2018-04-15T06:25:31.257Z,3380
2018-04-15T06:26:31.906Z,4264
2018-04-15T06:27:31.671Z,3456
2018-04-15T06:28:31.440Z,3316
2018-04-15T06:29:31.568Z,3368
2018-04-15T06:30:32.425Z,4292
2018-04-15T06:31:32.599Z,3604
2018-04-15T06:32:32.299Z,3384
2018-04-15T06:33:33.057Z,3288
2018-04-15T06:34:32.601Z,3388
2018-04-15T06:35:32.316Z,3676
2018-04-15T06:36:32.947Z,3876
2018-04-15T06:37:33.143Z,3700
2018-04-15T06:38:33.024Z,4492
2018-04-15T06:39:33.582Z,4364
2018-04-15T06:40:33.876Z,3936
2018-04-15T06:41:34.059Z,4012
2018-04-15T06:42:35.370Z,4200
2018-04-15T06:43:34.536Z,4340
2018-04-15T06:44:35.389Z,3920
2018-04-15T06:45:35.292Z,4040
2018-04-15T06:46:35.329Z,4232
2018-04-15T06:47:35.308Z,4404
2018-04-15T06:48:35.254Z,4096
2018-04-15T06:49:35.748Z,4164
2018-04-15T06:50:35.997Z,4532
2018-04-15T06:51:36.209Z,4504
2018-04-15T06:52:36.099Z,4460
2018-04-15T06:53:36.758Z,4564
2018-04-15T06:54:36.957Z,4604
2018-04-15T06:55:37.114Z,4928
2018-04-15T06:56:37.642Z,5088
2018-04-15T06:57:37.421Z,5088
2018-04-15T06:58:37.609Z,5444
2018-04-15T06:59:37.872Z,5332
2018-04-15T07:00:38.626Z,5304
2018-04-15T07:01:39.096Z,5616
2018-04-15T07:02:38.651Z,5768
2018-04-15T07:03:39.015Z,6032
2018-04-15T07:04:39.004Z,5940
2018-04-15T07:05:39.038Z,6028
2018-04-15T07:06:39.104Z,5844
2018-04-15T07:07:38.287Z,5428
2018-04-15T07:08:38.633Z,5464
2018-04-15T07:09:38.935Z,5836
2018-04-15T07:10:39.182Z,6536
2018-04-15T07:11:39.647Z,7760
2018-04-15T07:12:39.167Z,8260
2018-04-15T07:13:39.755Z,9000
2018-04-15T07:14:39.697Z,10008
2018-04-15T07:15:40.273Z,10776
2018-04-15T07:16:40.892Z,11800
2018-04-15T07:17:40.842Z,10776
2018-04-15T07:18:40.620Z,10016
2018-04-15T07:19:40.621Z,9248
2018-04-15T07:20:40.673Z,9084
2018-04-15T07:21:41.287Z,9784
2018-04-15T07:22:40.393Z,10216
2018-04-15T07:23:41.228Z,9816
2018-04-15T07:24:40.982Z,10284
2018-04-15T07:25:41.176Z,13948
2018-04-15T07:26:41.259Z,14164
2018-04-15T07:27:42.029Z,12988
2018-04-15T07:28:41.813Z,13496
2018-04-15T07:29:41.824Z,11204
2018-04-15T07:30:41.615Z,10044
2018-04-15T07:31:42.280Z,9848
2018-04-15T07:32:41.668Z,10324
2018-04-15T07:33:42.154Z,10572
2018-04-15T07:34:41.785Z,10100
2018-04-15T07:35:42.351Z,11212
2018-04-15T07:36:42.569Z,11352
2018-04-15T07:37:42.190Z,11064
2018-04-15T07:38:42.400Z,9856
2018-04-15T07:39:42.155Z,8692
2018-04-15T07:40:42.463Z,7976
2018-04-15T07:41:42.749Z,8292
2018-04-15T07:42:42.017Z,7384
2018-04-15T07:43:42.785Z,7476
2018-04-15T07:44:42.840Z,7136
2018-04-15T07:45:42.867Z,6604
2018-04-15T07:46:42.643Z,6184
2018-04-15T07:47:42.947Z,5860
2018-04-15T07:48:42.769Z,5868
2018-04-15T07:49:43.085Z,5676
2018-04-15T07:50:42.763Z,5936
2018-04-15T07:51:43.054Z,6364
2018-04-15T07:52:43.397Z,6904
2018-04-15T07:53:43.619Z,7600
2018-04-15T07:54:43.089Z,7780
2018-04-15T07:55:43.137Z,7900
2018-04-15T07:56:43.360Z,7736
2018-04-15T07:57:43.147Z,7288
2018-04-15T07:58:43.453Z,7672
2018-04-15T07:59:43.524Z,7356
2018-04-15T08:00:43.667Z,7300
2018-04-15T08:01:44.817Z,7648
2018-04-15T08:02:44.556Z,7876
2018-04-15T08:03:44.629Z,7900
2018-04-15T08:04:45.039Z,7872
2018-04-15T08:05:45.453Z,7504
2018-04-15T08:06:45.660Z,8212
2018-04-15T08:07:48.242Z,8400
2018-04-15T08:08:46.621Z,8516
2018-04-15T08:09:47.114Z,8368
2018-04-15T08:10:47.177Z,7972
2018-04-15T08:11:47.267Z,8640
2018-04-15T08:12:46.982Z,9944
2018-04-15T08:13:47.277Z,10452
2018-04-15T08:14:47.439Z,10944
2018-04-15T08:15:48.080Z,10284
2018-04-15T08:16:48.114Z,10088
2018-04-15T08:17:48.253Z,9816
2018-04-15T08:18:48.113Z,9752
2018-04-15T08:19:48.883Z,9708
2018-04-15T08:20:48.885Z,10000
2018-04-15T08:21:48.881Z,9848
2018-04-15T08:22:49.886Z,9900
2018-04-15T08:23:48.811Z,10368
2018-04-15T08:24:49.308Z,10880
2018-04-15T08:25:49.005Z,10920
2018-04-15T08:26:49.703Z,10800
2018-04-15T08:27:49.548Z,10636
2018-04-15T08:28:49.485Z,10616
2018-04-15T08:29:50.088Z,10640
2018-04-15T08:30:49.923Z,10564
2018-04-15T08:31:49.997Z,10644
2018-04-15T08:32:50.160Z,10224
2018-04-15T08:33:50.428Z,9860
2018-04-15T08:34:51.338Z,9180
2018-04-15T08:35:51.718Z,8676
2018-04-15T08:36:52.092Z,7964
2018-04-15T08:37:51.790Z,7148
2018-04-15T08:38:51.612Z,7012
2018-04-15T08:39:52.007Z,7396
2018-04-15T08:40:52.018Z,7920
2018-04-15T08:41:51.905Z,6048
2018-04-15T08:42:51.861Z,5192
2018-04-15T08:43:52.545Z,7340
2018-04-15T08:44:52.588Z,7676
2018-04-15T08:45:52.503Z,7980
2018-04-15T08:46:52.424Z,7992
2018-04-15T08:47:53.097Z,7936
2018-04-15T08:48:52.996Z,6900
2018-04-15T08:49:53.009Z,7000
2018-04-15T08:50:53.195Z,7268
2018-04-15T08:51:53.593Z,7684
2018-04-15T08:52:53.330Z,7804
2018-04-15T08:53:53.571Z,7692
2018-04-15T08:54:53.871Z,7748
2018-04-15T08:55:54.366Z,7988
2018-04-15T08:56:53.820Z,7368
2018-04-15T08:57:54.380Z,7728
2018-04-15T08:58:54.481Z,7456
2018-04-15T08:59:54.959Z,7492
2018-04-15T09:00:54.948Z,7200
2018-04-15T09:01:55.368Z,7308
2018-04-15T09:02:55.402Z,7600
2018-04-15T09:03:55.595Z,7156
2018-04-15T09:04:55.230Z,7228
2018-04-15T09:05:55.684Z,7112
2018-04-15T09:06:55.815Z,6984
2018-04-15T09:07:56.059Z,6336
2018-04-15T09:08:56.468Z,6336
2018-04-15T09:09:56.586Z,6256
2018-04-15T09:10:56.708Z,6184
2018-04-15T09:11:57.291Z,6108
2018-04-15T09:12:56.886Z,6624
2018-04-15T09:13:57.433Z,6608
2018-04-15T09:14:57.174Z,6316
2018-04-15T09:15:57.238Z,7308
2018-04-15T09:16:57.078Z,7532
2018-04-15T09:17:57.913Z,6852
2018-04-15T09:18:58.335Z,7912
2018-04-15T09:19:58.171Z,8448
2018-04-15T09:20:59.200Z,8840
2018-04-15T09:21:58.586Z,8564
2018-04-15T09:22:58.656Z,8424
2018-04-15T09:23:58.887Z,8128
2018-04-15T09:24:59.669Z,8216
2018-04-15T09:26:00.049Z,7628
2018-04-15T09:26:59.973Z,7976
2018-04-15T09:28:00.019Z,8040
2018-04-15T09:29:00.037Z,8152
2018-04-15T09:30:00.517Z,8076
2018-04-15T09:31:01.251Z,8064
2018-04-15T09:32:00.743Z,8148
2018-04-15T09:33:00.499Z,8268
2018-04-15T09:34:00.453Z,8404
2018-04-15T09:35:00.874Z,8428
2018-04-15T09:36:00.675Z,8512
2018-04-15T09:37:01.064Z,8224
2018-04-15T09:38:01.006Z,7888
2018-04-15T09:39:01.032Z,7980
2018-04-15T09:40:00.850Z,7744
2018-04-15T09:41:01.039Z,8140
2018-04-15T09:42:01.613Z,7768
2018-04-15T09:43:01.994Z,8264
2018-04-15T09:44:02.256Z,8188
2018-04-15T09:45:02.152Z,8040
2018-04-15T09:46:02.696Z,8120
2018-04-15T09:47:02.990Z,7996
2018-04-15T09:48:03.555Z,7864
2018-04-15T09:49:02.761Z,7496
2018-04-15T09:50:03.062Z,7432
2018-04-15T09:51:03.545Z,7440
2018-04-15T09:52:03.132Z,7384
2018-04-15T09:53:03.846Z,7720
2018-04-15T09:54:03.751Z,8120
2018-04-15T09:55:04.693Z,8188
2018-04-15T09:56:04.209Z,7972
2018-04-15T09:57:04.682Z,8320
2018-04-15T09:58:04.414Z,7952
2018-04-15T09:59:04.670Z,6748
2018-04-15T10:00:06.419Z,6972
2018-04-15T10:01:04.685Z,7404
2018-04-15T10:02:04.854Z,7244
2018-04-15T10:03:05.509Z,5848
2018-04-15T10:04:05.038Z,7340
2018-04-15T10:05:05.072Z,7208
2018-04-15T10:06:05.492Z,6232
2018-04-15T10:07:05.365Z,6932
2018-04-15T10:08:05.992Z,6644
2018-04-15T10:09:06.745Z,5536
2018-04-15T10:10:06.732Z,6184
2018-04-15T10:11:06.647Z,6756
2018-04-15T10:12:06.804Z,6672
2018-04-15T10:13:06.978Z,6716
2018-04-15T10:14:07.450Z,5952
2018-04-15T10:15:07.569Z,6148
2018-04-15T10:16:07.458Z,5904
2018-04-15T10:17:07.750Z,5924
2018-04-15T10:18:08.138Z,6440
2018-04-15T10:19:08.616Z,6624
2018-04-15T10:20:08.708Z,6264
2018-04-15T10:21:09.180Z,6724
2018-04-15T10:22:09.212Z,6828
2018-04-15T10:23:08.403Z,6740
2018-04-15T10:24:09.389Z,6684
2018-04-15T10:25:09.090Z,6532
2018-04-15T10:26:09.033Z,6508
2018-04-15T10:27:08.817Z,6316
2018-04-15T10:28:09.489Z,6260
2018-04-15T10:29:09.684Z,6232
2018-04-15T10:30:09.578Z,6168
2018-04-15T10:31:09.423Z,6100
2018-04-15T10:32:09.495Z,6264
2018-04-15T10:33:10.328Z,6508
2018-04-15T10:34:10.713Z,6520
2018-04-15T10:35:10.480Z,6548
2018-04-15T10:36:10.914Z,6592
2018-04-15T10:37:10.968Z,6476
2018-04-15T10:38:11.575Z,6024
2018-04-15T10:39:11.507Z,5856
2018-04-15T10:40:12.050Z,5836
2018-04-15T10:41:12.567Z,5352
2018-04-15T10:42:11.991Z,4544
2018-04-15T10:43:12.664Z,3704
2018-04-15T10:44:12.733Z,3240
2018-04-15T10:45:12.763Z,2968
2018-04-15T10:46:12.580Z,2860
2018-04-15T10:47:12.296Z,2740
2018-04-15T10:48:13.133Z,2628
2018-04-15T10:49:12.545Z,2528
2018-04-15T10:50:12.952Z,2380
2018-04-15T10:51:14.221Z,2664
2018-04-15T10:52:13.389Z,2436
2018-04-15T10:53:13.412Z,2484
2018-04-15T10:54:14.247Z,2424
2018-04-15T10:55:13.487Z,2536
2018-04-15T10:56:13.981Z,2496
2018-04-15T10:57:14.414Z,2464
2018-04-15T10:58:14.419Z,2428
2018-04-15T10:59:14.449Z,2292
2018-04-15T11:00:16.910Z,2024
2018-04-15T11:01:15.741Z,1988
2018-04-15T11:02:15.644Z,2256
2018-04-15T11:03:15.922Z,2524
2018-04-15T11:04:16.228Z,2708
2018-04-15T11:05:15.933Z,2544
2018-04-15T11:06:16.499Z,2244
2018-04-15T11:07:16.707Z,1868
2018-04-15T11:08:16.252Z,1936
2018-04-15T11:09:16.752Z,2260
2018-04-15T11:10:16.548Z,2756
2018-04-15T11:11:16.935Z,2836
2018-04-15T11:12:17.057Z,2840
2018-04-15T11:13:17.746Z,2664
2018-04-15T11:14:18.155Z,2336
2018-04-15T11:15:17.419Z,2176
2018-04-15T11:16:17.753Z,2096
2018-04-15T11:17:18.183Z,2104
2018-04-15T11:18:18.607Z,2216
2018-04-15T11:19:19.041Z,2236
2018-04-15T11:20:19.068Z,2328
2018-04-15T11:21:19.565Z,2200
2018-04-15T11:22:19.721Z,1976
2018-04-15T11:23:20.111Z,2080
2018-04-15T11:24:20.481Z,2120
2018-04-15T11:25:20.446Z,2088
2018-04-15T11:26:20.385Z,2004
2018-04-15T11:27:20.402Z,1952
2018-04-15T11:28:20.811Z,1988
2018-04-15T11:29:20.467Z,2032
2018-04-15T11:30:21.264Z,2060
2018-04-15T11:31:21.710Z,1940
2018-04-15T11:32:21.436Z,1712
2018-04-15T11:33:21.531Z,1772
2018-04-15T11:34:21.970Z,1836
2018-04-15T11:35:22.502Z,1992
2018-04-15T11:36:22.418Z,2148
2018-04-15T11:37:22.834Z,1988
2018-04-15T11:38:23.271Z,2000
2018-04-15T11:39:22.904Z,1904
2018-04-15T11:40:23.253Z,1824
2018-04-15T11:41:23.005Z,1860
2018-04-15T11:42:23.412Z,1824
2018-04-15T11:43:23.747Z,1804
2018-04-15T11:44:23.429Z,1724
2018-04-15T11:45:23.962Z,1620
2018-04-15T11:46:23.641Z,1568
2018-04-15T11:47:24.069Z,1476
2018-04-15T11:48:23.957Z,1496
2018-04-15T11:49:24.519Z,1604
2018-04-15T11:50:24.548Z,1696
2018-04-15T11:51:24.639Z,1864
2018-04-15T11:52:24.323Z,1988
2018-04-15T11:53:24.717Z,1908
2018-04-15T11:54:25.055Z,1836
2018-04-15T11:55:25.045Z,1812
2018-04-15T11:56:25.493Z,1788
2018-04-15T11:57:25.511Z,1708
2018-04-15T11:58:25.900Z,1740
2018-04-15T11:59:25.676Z,1744
2018-04-15T12:00:26.096Z,1744
2018-04-15T12:01:28.444Z,1784
2018-04-15T12:02:28.424Z,1816
2018-04-15T12:03:28.380Z,1796
2018-04-15T12:04:28.049Z,1780
2018-04-15T12:05:28.061Z,1748
2018-04-15T12:06:27.858Z,1708
2018-04-15T12:07:28.685Z,1788
2018-04-15T12:08:27.449Z,1844
2018-04-15T12:09:27.347Z,1904
2018-04-15T12:10:27.762Z,1944
2018-04-15T12:11:27.955Z,1988
2018-04-15T12:12:28.635Z,1936
2018-04-15T12:13:28.782Z,1916
2018-04-15T12:14:28.836Z,1760
2018-04-15T12:15:28.179Z,1840
2018-04-15T12:16:28.266Z,1820
2018-04-15T12:17:28.798Z,1784
2018-04-15T12:18:29.318Z,1852
2018-04-15T12:19:29.407Z,1976
2018-04-15T12:20:29.223Z,2132
2018-04-15T12:21:29.442Z,2124
2018-04-15T12:22:29.154Z,2052
2018-04-15T12:23:29.247Z,2148
2018-04-15T12:24:28.796Z,2272
2018-04-15T12:25:29.389Z,2284
2018-04-15T12:26:29.552Z,2224
2018-04-15T12:27:29.814Z,2276
2018-04-15T12:28:29.989Z,2376
2018-04-15T12:29:30.400Z,2452
2018-04-15T12:30:30.905Z,2428
2018-04-15T12:31:31.181Z,2424
2018-04-15T12:32:30.936Z,2460
2018-04-15T12:33:30.592Z,2476
2018-04-15T12:34:31.667Z,2444
2018-04-15T12:35:31.200Z,2408
2018-04-15T12:36:31.223Z,2456
2018-04-15T12:37:31.646Z,2600
2018-04-15T12:38:31.399Z,2564
2018-04-15T12:39:31.521Z,2548
2018-04-15T12:40:32.154Z,2508
2018-04-15T12:41:31.671Z,2440
2018-04-15T12:42:32.061Z,2360
2018-04-15T12:43:32.487Z,2384
2018-04-15T12:44:32.369Z,2488
2018-04-15T12:45:32.624Z,2496
2018-04-15T12:46:32.861Z,2592
2018-04-15T12:47:32.738Z,2748
2018-04-15T12:48:33.188Z,2896
2018-04-15T12:49:33.034Z,2988
2018-04-15T12:50:33.380Z,2956
2018-04-15T12:51:33.424Z,3024
2018-04-15T12:52:34.184Z,3040
2018-04-15T12:53:33.657Z,3068
2018-04-15T12:54:33.662Z,3136
2018-04-15T12:55:33.693Z,3180
2018-04-15T12:56:34.165Z,3180
2018-04-15T12:57:34.275Z,3264
2018-04-15T12:58:34.369Z,3136
2018-04-15T12:59:34.871Z,3092
2018-04-15T13:00:36.207Z,2956
2018-04-15T13:01:36.762Z,2820
2018-04-15T13:02:34.680Z,2856
2018-04-15T13:03:34.929Z,2836
2018-04-15T13:04:34.767Z,2872
2018-04-15T13:05:34.757Z,2908
2018-04-15T13:06:35.422Z,2984
2018-04-15T13:07:35.451Z,3052
2018-04-15T13:08:35.524Z,3008
2018-04-15T13:09:35.553Z,2956
2018-04-15T13:10:35.438Z,2976
2018-04-15T13:11:35.709Z,2912
2018-04-15T13:12:36.117Z,3028
2018-04-15T13:13:36.283Z,3112
2018-04-15T13:14:35.915Z,2912
2018-04-15T13:15:36.102Z,2788
2018-04-15T13:16:36.236Z,2708
2018-04-15T13:17:36.261Z,2552
2018-04-15T13:18:36.412Z,2584
2018-04-15T13:19:36.798Z,2636
2018-04-15T13:20:37.206Z,2664
2018-04-15T13:21:37.542Z,2696
2018-04-15T13:22:37.513Z,2708
2018-04-15T13:23:37.169Z,2636
2018-04-15T13:24:37.230Z,2596
2018-04-15T13:25:37.692Z,2524
2018-04-15T13:26:38.121Z,2552
2018-04-15T13:27:37.923Z,2620
2018-04-15T13:28:38.585Z,2628
2018-04-15T13:29:38.478Z,2540
2018-04-15T13:30:39.144Z,2432
2018-04-15T13:31:38.905Z,2352
2018-04-15T13:32:39.306Z,2384
2018-04-15T13:33:39.334Z,2444
2018-04-15T13:34:39.763Z,2428
2018-04-15T13:35:39.861Z,2444
2018-04-15T13:36:40.266Z,2516
2018-04-15T13:37:40.690Z,2512
2018-04-15T13:38:40.714Z,2336
2018-04-15T13:39:40.219Z,2220
2018-04-15T13:40:40.299Z,2184
2018-04-15T13:41:41.056Z,2168
2018-04-15T13:42:41.008Z,2188
2018-04-15T13:43:41.388Z,2176
2018-04-15T13:44:41.759Z,2212
2018-04-15T13:45:41.177Z,2324
2018-04-15T13:46:41.661Z,2352
2018-04-15T13:47:42.090Z,2304
2018-04-15T13:48:42.367Z,2452
2018-04-15T13:49:43.273Z,2468
2018-04-15T13:50:42.882Z,2596
2018-04-15T13:51:42.674Z,2664
2018-04-15T13:52:42.819Z,2780
2018-04-15T13:53:42.596Z,2776
2018-04-15T13:54:43.064Z,2864
2018-04-15T13:55:43.354Z,2656
2018-04-15T13:56:43.538Z,2480
2018-04-15T13:57:43.299Z,2420
2018-04-15T13:58:44.088Z,2396
2018-04-15T13:59:43.726Z,2532
2018-04-15T14:00:44.070Z,2784
2018-04-15T14:01:43.681Z,2896
2018-04-15T14:02:44.123Z,2768
2018-04-15T14:03:43.929Z,2600
2018-04-15T14:04:44.623Z,2548
2018-04-15T14:05:45.657Z,2632
2018-04-15T14:06:44.846Z,2488
2018-04-15T14:07:44.479Z,2480
2018-04-15T14:08:44.854Z,2336
2018-04-15T14:09:44.727Z,2076
2018-04-15T14:10:45.392Z,1964
2018-04-15T14:11:45.703Z,1944
2018-04-15T14:12:45.749Z,1880
2018-04-15T14:13:45.278Z,1980
2018-04-15T14:14:45.933Z,1964
2018-04-15T14:15:45.858Z,1812
2018-04-15T14:16:45.622Z,1696
2018-04-15T14:17:45.878Z,1668
2018-04-15T14:18:46.806Z,1588
2018-04-15T14:19:46.889Z,1468
2018-04-15T14:20:46.366Z,1476
2018-04-15T14:21:46.261Z,1552
2018-04-15T14:22:46.302Z,1536
2018-04-15T14:23:46.363Z,1660
2018-04-15T14:24:46.231Z,1736
2018-04-15T14:25:46.314Z,1872
2018-04-15T14:26:47.073Z,2016
2018-04-15T14:27:47.582Z,1992
2018-04-15T14:28:47.329Z,1940
2018-04-15T14:29:47.942Z,1892
2018-04-15T14:30:47.341Z,1844
2018-04-15T14:31:48.178Z,1876
2018-04-15T14:32:48.031Z,1908
2018-04-15T14:33:48.514Z,2000
2018-04-15T14:34:48.975Z,1980
2018-04-15T14:35:48.532Z,2016
2018-04-15T14:36:48.828Z,2060
2018-04-15T14:37:49.426Z,2020
2018-04-15T14:38:50.409Z,1912
2018-04-15T14:39:48.726Z,1888
2018-04-15T14:40:49.227Z,1976
2018-04-15T14:41:49.958Z,2088
2018-04-15T14:42:49.135Z,1852
2018-04-15T14:43:49.671Z,1644
2018-04-15T14:44:49.354Z,1520
2018-04-15T14:45:51.084Z,1360
2018-04-15T14:46:50.032Z,1296
2018-04-15T14:47:50.522Z,1260
2018-04-15T14:48:49.977Z,1264
2018-04-15T14:49:51.191Z,1264
2018-04-15T14:50:50.953Z,1264
2018-04-15T14:51:50.895Z,1344
2018-04-15T14:52:50.553Z,1388
2018-04-15T14:53:50.471Z,1444
2018-04-15T14:54:51.588Z,1444
2018-04-15T14:55:51.903Z,1352
2018-04-15T14:56:51.296Z,1264
2018-04-15T14:57:50.561Z,1200
2018-04-15T14:58:51.311Z,1184
2018-04-15T14:59:51.407Z,1172
2018-04-15T15:00:53.776Z,1148
2018-04-15T15:01:53.043Z,1148
2018-04-15T15:02:51.560Z,1228
2018-04-15T15:03:51.622Z,1296
2018-04-15T15:04:52.446Z,1348
2018-04-15T15:05:51.621Z,1380
2018-04-15T15:06:52.307Z,1448
2018-04-15T15:07:51.415Z,1560
2018-04-15T15:08:51.989Z,1652
2018-04-15T15:09:51.999Z,1684
2018-04-15T15:10:52.448Z,1628
2018-04-15T15:11:53.131Z,1528
2018-04-15T15:12:51.832Z,1468
2018-04-15T15:13:52.243Z,1460
2018-04-15T15:14:52.151Z,1472
2018-04-15T15:15:51.968Z,1540
2018-04-15T15:16:52.511Z,1368
2018-04-15T15:17:52.524Z,1384
2018-04-15T15:18:52.566Z,1336
2018-04-15T15:19:52.356Z,1304
2018-04-15T15:20:53.034Z,1356
2018-04-15T15:21:53.051Z,1444
2018-04-15T15:22:53.232Z,1500
2018-04-15T15:23:52.637Z,1460
2018-04-15T15:24:53.450Z,1340
2018-04-15T15:25:53.673Z,1280
2018-04-15T15:26:53.883Z,1260
2018-04-15T15:27:54.517Z,1244
2018-04-15T15:28:54.546Z,1188
2018-04-15T15:29:54.645Z,1140
2018-04-15T15:30:54.614Z,1116
2018-04-15T15:31:54.999Z,1064
2018-04-15T15:32:55.137Z,1032
2018-04-15T15:33:54.643Z,1012
2018-04-15T15:34:55.512Z,1012
2018-04-15T15:35:54.992Z,980
2018-04-15T15:36:55.167Z,976
2018-04-15T15:37:55.374Z,956
2018-04-15T15:38:56.038Z,940
2018-04-15T15:39:55.749Z,928
2018-04-15T15:40:56.040Z,912
2018-04-15T15:41:55.812Z,912
2018-04-15T15:42:55.968Z,892
2018-04-15T15:43:56.644Z,892
2018-04-15T15:44:56.814Z,884
2018-04-15T15:45:57.502Z,896
2018-04-15T15:46:57.671Z,928
2018-04-15T15:47:57.918Z,1004
2018-04-15T15:48:58.200Z,1056
2018-04-15T15:49:58.582Z,1072
2018-04-15T15:50:59.031Z,1056
2018-04-15T15:51:58.491Z,1068
2018-04-15T15:52:58.366Z,1052
2018-04-15T15:53:59.102Z,1028
2018-04-15T15:54:59.057Z,1020
2018-04-15T15:56:00.224Z,988
2018-04-15T15:56:58.752Z,952
2018-04-15T15:57:58.441Z,928
2018-04-15T15:58:58.590Z,912
2018-04-15T15:59:59.155Z,908
2018-04-15T16:00:58.545Z,904
2018-04-15T16:01:59.048Z,892
2018-04-15T16:02:59.045Z,876
2018-04-15T16:03:59.435Z,852
2018-04-15T16:04:59.210Z,844
2018-04-15T16:05:59.676Z,856
2018-04-15T16:06:59.643Z,864
2018-04-15T16:07:59.208Z,852
2018-04-15T16:08:59.741Z,852
2018-04-15T16:10:00.382Z,880
2018-04-15T16:11:00.306Z,904
2018-04-15T16:12:00.308Z,904
2018-04-15T16:13:00.738Z,884
2018-04-15T16:14:00.642Z,872
2018-04-15T16:15:01.198Z,860
2018-04-15T16:16:01.100Z,844
2018-04-15T16:17:01.034Z,812
2018-04-15T16:18:01.089Z,776
2018-04-15T16:19:01.789Z,764
2018-04-15T16:20:02.961Z,752
2018-04-15T16:21:03.054Z,736
2018-04-15T16:22:01.939Z,724
2018-04-15T16:23:03.021Z,720
2018-04-15T16:24:02.412Z,724
2018-04-15T16:25:02.951Z,736
2018-04-15T16:26:01.930Z,772
2018-04-15T16:27:02.456Z,836
2018-04-15T16:28:02.960Z,896
2018-04-15T16:29:03.349Z,924
2018-04-15T16:30:02.252Z,944
2018-04-15T16:31:02.407Z,976
2018-04-15T16:32:03.000Z,980
2018-04-15T16:33:02.466Z,940
2018-04-15T16:34:02.640Z,896
2018-04-15T16:35:02.889Z,872
2018-04-15T16:36:03.292Z,876
2018-04-15T16:37:04.256Z,868
2018-04-15T16:38:04.484Z,860
2018-04-15T16:39:03.936Z,880
2018-04-15T16:40:02.760Z,900
2018-04-15T16:41:03.301Z,864
2018-04-15T16:42:03.757Z,824
2018-04-15T16:43:03.590Z,836
2018-04-15T16:44:03.918Z,864
2018-04-15T16:45:04.139Z,888
2018-04-15T16:46:04.391Z,884
2018-04-15T16:47:04.309Z,896
2018-04-15T16:48:04.277Z,900
2018-04-15T16:49:03.951Z,888
2018-04-15T16:50:04.160Z,884
2018-04-15T16:51:04.508Z,852
2018-04-15T16:52:04.696Z,808
2018-04-15T16:53:04.831Z,788
2018-04-15T16:54:05.548Z,748
2018-04-15T16:55:05.410Z,700
2018-04-15T16:56:05.401Z,668
2018-04-15T16:57:05.880Z,656
2018-04-15T16:58:05.616Z,644
2018-04-15T16:59:05.506Z,628
2018-04-15T17:00:20.885Z,628
2018-04-15T17:01:05.676Z,628
2018-04-15T17:02:06.506Z,628
2018-04-15T17:03:06.269Z,640
2018-04-15T17:04:06.506Z,648
2018-04-15T17:05:06.474Z,660
2018-04-15T17:06:06.599Z,688
2018-04-15T17:07:07.032Z,684
2018-04-15T17:08:07.431Z,660
2018-04-15T17:09:07.824Z,632
2018-04-15T17:10:08.054Z,628
2018-04-15T17:11:09.473Z,628
2018-04-15T17:12:07.380Z,608
2018-04-15T17:13:08.261Z,600
2018-04-15T17:14:07.844Z,588
2018-04-15T17:15:08.444Z,572
2018-04-15T17:16:09.115Z,532
2018-04-15T17:17:08.823Z,492
2018-04-15T17:18:08.789Z,476
2018-04-15T17:19:08.835Z,432
2018-04-15T17:20:09.963Z,408
2018-04-15T17:21:09.851Z,400
2018-04-15T17:22:10.483Z,372
2018-04-15T17:23:09.262Z,364
2018-04-15T17:24:09.563Z,356
2018-04-15T17:25:09.980Z,336
2018-04-15T17:26:09.416Z,312
2018-04-15T17:27:09.431Z,296
2018-04-15T17:28:09.855Z,284
2018-04-15T17:29:09.970Z,272
2018-04-15T17:30:10.141Z,268
2018-04-15T17:31:10.803Z,252
2018-04-15T17:32:10.975Z,244
2018-04-15T17:33:11.098Z,244
2018-04-15T17:34:10.945Z,244
2018-04-15T17:35:10.441Z,240
2018-04-15T17:36:10.856Z,228
2018-04-15T17:37:11.866Z,212
2018-04-15T17:38:11.468Z,204
2018-04-15T17:39:11.463Z,188
2018-04-15T17:40:11.631Z,184
2018-04-15T17:41:12.020Z,180
2018-04-15T17:42:12.209Z,172
2018-04-15T17:43:12.803Z,168
2018-04-15T17:44:12.782Z,164
2018-04-15T17:45:12.448Z,160
2018-04-15T17:46:12.539Z,152
2018-04-15T17:47:12.542Z,144
2018-04-15T17:48:12.975Z,140
2018-04-15T17:49:12.748Z,140
2018-04-15T17:50:13.157Z,132
2018-04-15T17:51:13.464Z,128
2018-04-15T17:52:13.765Z,120
2018-04-15T17:53:13.976Z,108
2018-04-15T17:54:13.687Z,104
2018-04-15T17:55:14.796Z,96
2018-04-15T17:56:13.649Z,88
2018-04-15T17:57:13.904Z,84
2018-04-15T17:58:13.802Z,76
2018-04-15T17:59:14.203Z,72
2018-04-15T18:00:16.144Z,60
2018-04-15T18:01:13.623Z,60
2018-04-15T18:02:14.244Z,52
2018-04-15T18:03:14.050Z,48
2018-04-15T18:04:14.362Z,40
2018-04-15T18:05:13.769Z,40
2018-04-15T18:06:14.304Z,32
2018-04-15T18:07:14.893Z,32
2018-04-15T18:08:14.140Z,28
2018-04-15T18:09:14.699Z,28
2018-04-15T18:10:15.579Z,24
2018-04-15T18:11:15.592Z,24
2018-04-15T18:12:15.852Z,20
2018-04-15T18:13:14.767Z,20
2018-04-15T18:14:15.285Z,16
2018-04-15T18:15:14.698Z,16
2018-04-15T18:16:14.853Z,12
2018-04-15T18:17:16.291Z,12
2018-04-15T18:18:16.720Z,12
2018-04-15T18:19:16.710Z,8
2018-04-15T18:20:16.611Z,8
2018-04-15T18:21:17.182Z,4
2018-04-15T18:22:17.266Z,8
2018-04-15T18:23:16.920Z,4
2018-04-15T18:24:16.912Z,4
2018-04-15T18:25:17.145Z,4
2018-04-15T18:26:17.398Z,4
2018-04-15T18:27:16.904Z,4
2018-04-15T18:28:17.807Z,0
2018-04-15T18:29:17.287Z,4
2018-04-15T18:30:17.468Z,4
2018-04-15T18:31:18.062Z,4
2018-04-15T18:32:17.313Z,0
2018-04-15T18:33:17.821Z,0
2018-04-15T18:34:17.852Z,4
2018-04-15T18:35:17.625Z,0
2018-04-15T18:36:18.051Z,0
2018-04-15T18:37:17.811Z,0
2018-04-15T18:38:17.793Z,0
2018-04-15T18:39:17.762Z,0
2018-04-15T18:40:18.640Z,0
2018-04-15T18:41:18.496Z,0
2018-04-15T18:42:19.072Z,0
2018-04-15T18:43:18.728Z,0
2018-04-15T18:44:18.445Z,0
2018-04-15T18:45:18.525Z,0
2018-04-15T18:46:19.629Z,0
2018-04-15T18:47:19.064Z,4
2018-04-15T18:48:19.127Z,4
2018-04-15T18:49:19.553Z,4
2018-04-15T18:50:19.629Z,0
2018-04-15T18:51:19.612Z,0
2018-04-15T18:52:19.519Z,4
2018-04-15T18:53:19.751Z,4
2018-04-15T18:54:19.546Z,4
2018-04-15T18:55:19.938Z,4
2018-04-15T18:56:19.714Z,4
2018-04-15T18:57:19.562Z,4
2018-04-15T18:58:20.489Z,0
2018-04-15T18:59:20.124Z,4
2018-04-15T19:00:23.306Z,4
2018-04-15T19:01:23.992Z,4
2018-04-15T19:02:24.281Z,4
2018-04-15T19:03:24.462Z,4
2018-04-15T19:04:24.256Z,4
2018-04-15T19:05:24.755Z,4
2018-04-15T19:06:24.990Z,4
2018-04-15T19:07:24.978Z,4
2018-04-15T19:08:25.455Z,4
2018-04-15T19:09:26.274Z,4
2018-04-15T19:10:25.987Z,4
2018-04-15T19:11:26.320Z,4
2018-04-15T19:12:26.324Z,4
2018-04-15T19:13:26.538Z,4
2018-04-15T19:14:26.809Z,4
2018-04-15T19:15:27.013Z,4
2018-04-15T19:16:27.347Z,4
2018-04-15T19:17:26.987Z,4
2018-04-15T19:18:27.763Z,4
2018-04-15T19:19:27.503Z,4
2018-04-15T19:20:27.579Z,4
2018-04-15T19:21:28.057Z,4
2018-04-15T19:22:28.216Z,4
2018-04-15T19:23:28.979Z,4
2018-04-15T19:24:28.335Z,4
2018-04-15T19:25:28.703Z,4
2018-04-15T19:26:29.129Z,4
2018-04-15T19:27:28.876Z,4
2018-04-15T19:28:29.180Z,4
2018-04-15T19:29:29.137Z,4
2018-04-15T19:30:29.406Z,4
2018-04-15T19:31:29.843Z,4
2018-04-15T19:32:30.016Z,4
2018-04-15T19:33:29.635Z,4
2018-04-15T19:34:30.815Z,4
2018-04-15T19:35:29.701Z,4
2018-04-15T19:36:30.461Z,4
2018-04-15T19:37:30.509Z,4
2018-04-15T19:38:29.944Z,4
2018-04-15T19:39:31.946Z,4
2018-04-15T19:40:30.812Z,4
2018-04-15T19:41:31.382Z,4
2018-04-15T19:42:30.520Z,4
2018-04-15T19:43:30.610Z,4
2018-04-15T19:44:31.421Z,4
2018-04-15T19:45:31.391Z,4
2018-04-15T19:46:32.375Z,4
2018-04-15T19:47:32.570Z,4
2018-04-15T19:48:32.688Z,4
2018-04-15T19:49:32.975Z,4